DAL1441 KRDU-KATL
Flight info
| Callsign | DAL1441 |
|---|---|
| Flight time | N/A |
| Altitude | 30000 |
| Route | SHPRD4 SHPRD LEAVI OZZZI2 |
| Aircraft | B739/M-VGDW/C |
Departure
| Time | 2026-05-07 02:27 |
|---|---|
| Airport | Raleigh-Durham International Airport (KRDU) |
Arrival
| Time | N/A |
|---|---|
| Airport | Hartsfield Jackson Atlanta International Airport (KATL) |
| Time | Latitude | Longitude | Altitude | Speed | Heading |
|---|---|---|---|---|---|
| 2026-05-07 02:08 | 35.87700 | -78.79483 | 391 ft | 0 kts | 136° |
| 2026-05-07 02:13 | 35.87702 | -78.79485 | 391 ft | 4 kts | 135° |
| 2026-05-07 02:13 | 35.87723 | -78.79511 | 391 ft | 4 kts | 118° |
| 2026-05-07 02:14 | 35.87725 | -78.79546 | 391 ft | 4 kts | 74° |
| 2026-05-07 02:14 | 35.87716 | -78.79570 | 391 ft | 0 kts | 43° |
| 2026-05-07 02:15 | 35.87722 | -78.79563 | 391 ft | 6 kts | 43° |
| 2026-05-07 02:15 | 35.87780 | -78.79490 | 391 ft | 11 kts | 46° |
| 2026-05-07 02:15 | 35.87816 | -78.79445 | 391 ft | 4 kts | 45° |
| 2026-05-07 02:15 | 35.87827 | -78.79431 | 391 ft | 0 kts | 45° |
| 2026-05-07 02:16 | 35.87856 | -78.79397 | 391 ft | 10 kts | 45° |
| 2026-05-07 02:17 | 35.87919 | -78.79319 | 391 ft | 14 kts | 45° |
| 2026-05-07 02:17 | 35.87987 | -78.79234 | 391 ft | 14 kts | 45° |
| 2026-05-07 02:17 | 35.88054 | -78.79151 | 391 ft | 13 kts | 45° |
| 2026-05-07 02:17 | 35.88117 | -78.79073 | 391 ft | 13 kts | 45° |
| 2026-05-07 02:18 | 35.88179 | -78.78995 | 390 ft | 13 kts | 46° |
| 2026-05-07 02:18 | 35.88241 | -78.78916 | 390 ft | 13 kts | 46° |
| 2026-05-07 02:18 | 35.88308 | -78.78832 | 390 ft | 14 kts | 45° |
| 2026-05-07 02:18 | 35.88379 | -78.78746 | 390 ft | 14 kts | 44° |
| 2026-05-07 02:19 | 35.88449 | -78.78660 | 391 ft | 14 kts | 45° |
| 2026-05-07 02:19 | 35.88516 | -78.78576 | 391 ft | 13 kts | 45° |
| 2026-05-07 02:19 | 35.88580 | -78.78497 | 391 ft | 13 kts | 44° |
| 2026-05-07 02:19 | 35.88642 | -78.78420 | 391 ft | 13 kts | 45° |
| 2026-05-07 02:20 | 35.88703 | -78.78344 | 391 ft | 12 kts | 45° |
| 2026-05-07 02:20 | 35.88763 | -78.78270 | 391 ft | 12 kts | 45° |
| 2026-05-07 02:20 | 35.88821 | -78.78199 | 391 ft | 12 kts | 44° |
| 2026-05-07 02:20 | 35.88877 | -78.78130 | 391 ft | 11 kts | 43° |
| 2026-05-07 02:21 | 35.88937 | -78.78057 | 390 ft | 13 kts | 45° |
| 2026-05-07 02:21 | 35.88990 | -78.77940 | 391 ft | 18 kts | 73° |
| 2026-05-07 02:21 | 35.89066 | -78.77817 | 391 ft | 18 kts | 45° |
| 2026-05-07 02:21 | 35.89152 | -78.77710 | 391 ft | 13 kts | 45° |
| 2026-05-07 02:22 | 35.89191 | -78.77662 | 391 ft | 8 kts | 45° |
| 2026-05-07 02:22 | 35.89234 | -78.77642 | 391 ft | 7 kts | 325° |
| 2026-05-07 02:22 | 35.89252 | -78.77666 | 391 ft | 0 kts | 313° |
| 2026-05-07 02:24 | 35.89255 | -78.77669 | 391 ft | 4 kts | 313° |
| 2026-05-07 02:24 | 35.89285 | -78.77708 | 391 ft | 7 kts | 315° |
| 2026-05-07 02:24 | 35.89295 | -78.77720 | 391 ft | 0 kts | 316° |
| 2026-05-07 02:24 | 35.89301 | -78.77726 | 391 ft | 2 kts | 316° |
| 2026-05-07 02:25 | 35.89306 | -78.77733 | 391 ft | 0 kts | 316° |
| 2026-05-07 02:25 | 35.89315 | -78.77744 | 391 ft | 8 kts | 316° |
| 2026-05-07 02:25 | 35.89361 | -78.77822 | 392 ft | 12 kts | 266° |
| 2026-05-07 02:26 | 35.89348 | -78.77849 | 391 ft | 0 kts | 225° |
| 2026-05-07 02:26 | 35.89347 | -78.77850 | 391 ft | 0 kts | 225° |
| 2026-05-07 02:26 | 35.89346 | -78.77851 | 391 ft | 0 kts | 225° |
| 2026-05-07 02:26 | 35.89322 | -78.77881 | 391 ft | 20 kts | 225° |
| 2026-05-07 02:27 | 35.89056 | -78.78211 | 390 ft | 88 kts | 225° |
| 2026-05-07 02:27 | 35.88482 | -78.78919 | 390 ft | 143 kts | 225° |
| 2026-05-07 02:27 | 35.87697 | -78.79888 | 529 ft | 171 kts | 225° |
| 2026-05-07 02:27 | 35.86883 | -78.80910 | 1239 ft | 167 kts | 224° |
| 2026-05-07 02:28 | 35.86024 | -78.81929 | 1779 ft | 173 kts | 223° |
| 2026-05-07 02:28 | 35.85173 | -78.82917 | 2560 ft | 162 kts | 224° |
| 2026-05-07 02:28 | 35.84370 | -78.83878 | 3171 ft | 162 kts | 225° |
| 2026-05-07 02:28 | 35.83539 | -78.84862 | 3627 ft | 171 kts | 226° |
| 2026-05-07 02:29 | 35.82652 | -78.85931 | 3967 ft | 183 kts | 227° |
| 2026-05-07 02:29 | 35.81692 | -78.87053 | 4241 ft | 198 kts | 226° |
| 2026-05-07 02:29 | 35.80632 | -78.88266 | 4522 ft | 214 kts | 226° |
| 2026-05-07 02:29 | 35.79560 | -78.89552 | 5055 ft | 222 kts | 228° |
| 2026-05-07 02:30 | 35.78469 | -78.90900 | 5762 ft | 223 kts | 229° |
| 2026-05-07 02:30 | 35.77351 | -78.92275 | 6233 ft | 237 kts | 229° |
| 2026-05-07 02:30 | 35.76174 | -78.93772 | 6650 ft | 247 kts | 235° |
| 2026-05-07 02:30 | 35.75570 | -78.95723 | 7231 ft | 247 kts | 270° |
| 2026-05-07 02:31 | 35.75983 | -78.97786 | 7967 ft | 253 kts | 286° |
| 2026-05-07 02:31 | 35.76519 | -78.99863 | 8741 ft | 255 kts | 283° |
| 2026-05-07 02:31 | 35.77025 | -79.01973 | 9533 ft | 258 kts | 283° |
| 2026-05-07 02:31 | 35.77525 | -79.04090 | 10252 ft | 263 kts | 283° |
| 2026-05-07 02:32 | 35.78050 | -79.06339 | 10499 ft | 285 kts | 283° |
| 2026-05-07 02:32 | 35.78618 | -79.08784 | 10666 ft | 307 kts | 283° |
| 2026-05-07 02:32 | 35.79227 | -79.11408 | 10872 ft | 327 kts | 283° |
| 2026-05-07 02:32 | 35.79855 | -79.14106 | 11327 ft | 335 kts | 283° |
| 2026-05-07 02:33 | 35.80502 | -79.16884 | 11887 ft | 338 kts | 283° |
| 2026-05-07 02:33 | 35.81152 | -79.19679 | 11963 ft | 338 kts | 283° |
| 2026-05-07 02:33 | 35.81797 | -79.22458 | 11996 ft | 338 kts | 283° |
| 2026-05-07 02:33 | 35.82442 | -79.25252 | 12002 ft | 339 kts | 283° |
| 2026-05-07 02:34 | 35.83057 | -79.28055 | 12005 ft | 338 kts | 279° |
| 2026-05-07 02:34 | 35.83367 | -79.30915 | 12006 ft | 336 kts | 271° |
| 2026-05-07 02:34 | 35.83305 | -79.33798 | 12011 ft | 335 kts | 264° |
| 2026-05-07 02:34 | 35.83082 | -79.36616 | 12016 ft | 335 kts | 263° |
| 2026-05-07 02:35 | 35.82847 | -79.39476 | 12013 ft | 335 kts | 263° |
| 2026-05-07 02:35 | 35.82617 | -79.42333 | 12020 ft | 335 kts | 264° |
| 2026-05-07 02:35 | 35.82394 | -79.45195 | 12028 ft | 335 kts | 263° |
| 2026-05-07 02:35 | 35.82174 | -79.48062 | 12024 ft | 336 kts | 263° |
| 2026-05-07 02:36 | 35.82029 | -79.49964 | 12023 ft | 336 kts | 263° |
| 2026-05-07 02:36 | 35.81808 | -79.52827 | 12022 ft | 335 kts | 263° |
| 2026-05-07 02:36 | 35.81466 | -79.55676 | 12101 ft | 339 kts | 258° |
| 2026-05-07 02:36 | 35.80990 | -79.58531 | 12753 ft | 340 kts | 257° |
| 2026-05-07 02:37 | 35.80487 | -79.61371 | 13501 ft | 339 kts | 257° |
| 2026-05-07 02:37 | 35.79979 | -79.64221 | 14076 ft | 343 kts | 257° |
| 2026-05-07 02:37 | 35.79470 | -79.67100 | 14609 ft | 345 kts | 257° |
| 2026-05-07 02:37 | 35.78961 | -79.70004 | 15206 ft | 347 kts | 258° |
| 2026-05-07 02:38 | 35.78463 | -79.72875 | 15798 ft | 348 kts | 258° |
| 2026-05-07 02:38 | 35.77958 | -79.75801 | 16390 ft | 349 kts | 259° |
| 2026-05-07 02:38 | 35.77453 | -79.78738 | 16967 ft | 351 kts | 259° |
| 2026-05-07 02:38 | 35.76946 | -79.81690 | 17569 ft | 352 kts | 259° |
| 2026-05-07 02:39 | 35.76438 | -79.84643 | 18173 ft | 353 kts | 259° |
| 2026-05-07 02:39 | 35.75927 | -79.87611 | 18679 ft | 354 kts | 259° |
| 2026-05-07 02:39 | 35.75415 | -79.90584 | 19158 ft | 356 kts | 259° |
| 2026-05-07 02:39 | 35.74900 | -79.93570 | 19612 ft | 358 kts | 259° |
| 2026-05-07 02:40 | 35.74386 | -79.96546 | 20058 ft | 360 kts | 259° |
| 2026-05-07 02:40 | 35.73862 | -79.99566 | 20520 ft | 361 kts | 259° |
| 2026-05-07 02:40 | 35.73336 | -80.02600 | 20970 ft | 363 kts | 259° |
| 2026-05-07 02:40 | 35.72807 | -80.05647 | 21411 ft | 364 kts | 259° |
| 2026-05-07 02:41 | 35.72273 | -80.08714 | 21846 ft | 366 kts | 259° |
| 2026-05-07 02:41 | 35.71738 | -80.11787 | 22263 ft | 368 kts | 259° |
| 2026-05-07 02:41 | 35.71199 | -80.14874 | 22695 ft | 370 kts | 259° |
| 2026-05-07 02:41 | 35.70664 | -80.17939 | 23134 ft | 371 kts | 259° |
| 2026-05-07 02:42 | 35.70123 | -80.21036 | 23632 ft | 370 kts | 260° |
| 2026-05-07 02:42 | 35.69579 | -80.24140 | 23965 ft | 372 kts | 259° |
| 2026-05-07 02:42 | 35.69031 | -80.27266 | 24265 ft | 374 kts | 259° |